createdAt,value
2023-02-28T00:10:37.606Z,9.07
2023-02-28T00:41:07.445Z,9.40
2023-02-28T01:31:16.901Z,7.03
2023-02-28T01:42:23.191Z,7.40
2023-02-28T01:47:29.053Z,9.23
2023-02-28T01:52:32.729Z,8.97
2023-02-28T01:57:39.314Z,8.63
2023-02-28T02:02:45.097Z,8.10
2023-02-28T02:07:50.540Z,11.20
2023-02-28T02:13:13.778Z,8.83
2023-02-28T02:18:26.706Z,10.23
2023-02-28T02:24:00.444Z,8.83
2023-02-28T02:30:16.718Z,9.37
2023-02-28T02:35:42.965Z,10.80
2023-02-28T02:40:57.618Z,10.63
2023-02-28T02:46:25.487Z,10.57
2023-02-28T02:51:46.132Z,9.00
2023-02-28T02:57:02.021Z,10.97
2023-02-28T03:02:23.313Z,11.43
2023-02-28T03:07:35.832Z,10.87
2023-02-28T03:12:53.355Z,10.33
2023-02-28T03:18:11.286Z,10.70
2023-02-28T03:23:29.915Z,10.93
2023-02-28T03:28:50.884Z,11.87
2023-02-28T03:34:09.713Z,15.10
2023-02-28T03:39:31.337Z,13.70
2023-02-28T03:44:56.076Z,12.20
2023-02-28T03:50:42.844Z,15.80
2023-02-28T04:02:15.192Z,12.23
2023-02-28T04:08:09.185Z,15.07
2023-02-28T04:14:17.880Z,15.63
2023-02-28T06:12:52.053Z,22.47
2023-02-28T06:19:18.243Z,21.23
2023-02-28T06:30:37.920Z,17.77
2023-02-28T06:36:04.129Z,21.20
2023-02-28T06:41:54.676Z,23.27
2023-02-28T06:47:01.853Z,21.00
2023-02-28T08:07:52.997Z,17.23
2023-02-28T08:45:20.027Z,13.70
2023-02-28T08:51:20.380Z,13.17
2023-02-28T08:56:22.168Z,15.27
2023-02-28T09:01:29.221Z,15.40
2023-02-28T09:06:33.655Z,14.50
2023-02-28T09:11:37.338Z,16.90
2023-02-28T09:16:41.482Z,16.07
2023-02-28T09:21:44.188Z,13.10
2023-02-28T09:27:01.534Z,12.90
2023-02-28T09:32:08.099Z,11.10
2023-02-28T09:37:13.278Z,10.43
2023-02-28T09:42:23.964Z,12.25
2023-02-28T09:48:33.507Z,11.07
2023-02-28T09:54:23.786Z,8.90
2023-02-28T10:00:06.095Z,8.60
2023-02-28T10:06:12.714Z,7.47
2023-02-28T10:11:19.114Z,9.38
2023-02-28T10:16:27.606Z,11.75
2023-02-28T10:21:36.942Z,10.23
2023-02-28T10:26:43.690Z,14.18
2023-02-28T10:31:46.458Z,11.05
2023-02-28T10:36:51.134Z,13.73
2023-02-28T10:41:56.385Z,11.53
2023-02-28T10:46:59.903Z,12.63
2023-02-28T10:52:08.359Z,12.70
2023-02-28T10:57:19.655Z,13.05
2023-02-28T11:07:50.439Z,12.65
2023-02-28T11:13:00.888Z,13.40
2023-02-28T11:18:21.272Z,9.50
2023-02-28T11:23:28.582Z,10.73
2023-02-28T11:28:34.627Z,10.77
2023-02-28T11:33:45.882Z,10.07
2023-02-28T11:38:50.438Z,9.43
2023-02-28T11:44:07.401Z,11.35
2023-02-28T11:49:24.704Z,10.45
2023-02-28T11:54:43.983Z,8.95
2023-02-28T12:00:02.105Z,8.15
2023-02-28T12:05:22.493Z,9.27
2023-02-28T12:10:28.063Z,8.82
2023-02-28T12:15:47.728Z,10.63
2023-02-28T12:20:58.606Z,12.52
2023-02-28T12:26:10.391Z,9.88
2023-02-28T12:31:20.060Z,8.82
2023-02-28T12:36:24.731Z,11.30
2023-02-28T12:41:35.159Z,11.88
2023-02-28T12:46:44.388Z,11.85
2023-02-28T12:51:51.392Z,12.32
2023-02-28T12:57:01.370Z,8.98
2023-02-28T13:02:21.863Z,11.55
2023-02-28T13:08:08.934Z,8.35
2023-02-28T13:13:18.904Z,12.05
2023-02-28T13:18:32.898Z,10.95
2023-02-28T13:23:59.609Z,10.18
2023-02-28T13:29:05.576Z,12.07
2023-02-28T13:34:17.442Z,10.35
2023-02-28T13:39:50.546Z,10.02
2023-02-28T13:45:25.757Z,11.45
2023-02-28T13:50:38.940Z,11.75
2023-02-28T13:55:49.376Z,12.25
2023-02-28T14:01:14.654Z,15.52
2023-02-28T14:06:23.829Z,13.52
2023-02-28T14:11:30.691Z,12.38
2023-02-28T14:16:41.754Z,15.02
2023-02-28T14:22:02.982Z,11.38
2023-02-28T14:27:18.814Z,12.93
2023-02-28T14:32:31.045Z,12.27
2023-02-28T14:37:40.525Z,11.98
2023-02-28T14:42:50.052Z,14.60
2023-02-28T14:47:53.669Z,14.90
2023-02-28T14:52:58.284Z,12.93
2023-02-28T14:58:14.812Z,15.07
2023-02-28T15:03:24.594Z,14.93
2023-02-28T15:08:30.156Z,13.80
2023-02-28T15:13:39.453Z,17.43
2023-02-28T15:18:49.161Z,16.63
2023-02-28T15:23:56.987Z,14.30
2023-02-28T15:29:02.118Z,16.37
2023-02-28T15:34:07.970Z,15.00
2023-02-28T15:39:23.118Z,16.17
2023-02-28T15:44:30.437Z,14.77
2023-02-28T15:49:45.310Z,14.93
2023-02-28T15:54:50.266Z,18.63
2023-02-28T15:59:56.086Z,19.43
2023-02-28T16:05:01.584Z,16.43
2023-02-28T16:10:06.843Z,19.80
2023-02-28T16:15:18.880Z,22.23
2023-02-28T16:20:24.020Z,20.07
2023-02-28T16:25:36.029Z,20.30
2023-02-28T16:30:38.752Z,16.20
2023-02-28T16:35:41.887Z,19.27
2023-02-28T16:40:47.059Z,16.73
2023-02-28T16:45:49.777Z,17.80
2023-02-28T16:50:52.981Z,15.90
2023-02-28T16:55:57.131Z,19.97
2023-02-28T17:00:59.842Z,22.60
2023-02-28T17:06:02.574Z,23.30
2023-02-28T17:11:06.783Z,38.63
2023-02-28T17:16:19.434Z,47.33
2023-02-28T17:21:22.257Z,41.37
2023-02-28T17:26:27.358Z,29.03
2023-02-28T17:31:30.463Z,43.03
2023-02-28T17:36:35.673Z,39.70
2023-02-28T17:41:39.627Z,39.60
2023-02-28T17:46:43.295Z,35.57
2023-02-28T17:51:46.448Z,37.77
2023-02-28T17:56:50.383Z,31.53
2023-02-28T18:01:53.098Z,26.97
2023-02-28T18:07:00.717Z,32.00
2023-02-28T18:12:04.942Z,30.23
2023-02-28T18:17:07.591Z,28.73
2023-02-28T18:22:10.612Z,34.50
2023-02-28T18:27:14.740Z,38.33
2023-02-28T18:32:17.458Z,43.87
2023-02-28T18:37:20.817Z,62.30
2023-02-28T18:42:24.851Z,48.77
2023-02-28T18:47:27.588Z,48.77
2023-02-28T18:52:30.353Z,49.93
2023-02-28T18:57:34.376Z,43.27
2023-02-28T19:02:40.608Z,43.03
2023-02-28T19:07:43.378Z,39.40
2023-02-28T19:12:47.360Z,42.43
2023-02-28T19:17:50.053Z,48.50
2023-02-28T19:22:52.758Z,47.53
2023-02-28T19:27:57.488Z,41.67
2023-02-28T19:33:00.138Z,45.47
2023-02-28T19:38:02.772Z,40.70
2023-02-28T19:43:06.952Z,40.93
2023-02-28T19:48:10.102Z,45.03
2023-02-28T19:53:12.808Z,36.40
2023-02-28T19:58:16.838Z,41.27
2023-02-28T20:03:19.550Z,40.97
2023-02-28T20:08:24.260Z,46.77
2023-02-28T20:13:28.690Z,41.43
2023-02-28T20:18:31.504Z,39.30
2023-02-28T20:23:34.191Z,40.63
2023-02-28T20:28:38.746Z,38.83
2023-02-28T20:33:41.776Z,36.60
2023-02-28T20:38:44.529Z,39.23
2023-02-28T20:43:48.814Z,39.57
2023-02-28T22:34:44.578Z,41.87
2023-02-28T22:41:10.514Z,37.03
2023-02-28T22:46:20.092Z,43.07
2023-02-28T22:51:31.404Z,43.77
2023-02-28T22:56:42.502Z,42.37
2023-02-28T23:01:46.797Z,40.20
2023-02-28T23:06:51.571Z,41.03
2023-02-28T23:11:58.663Z,40.73
2023-02-28T23:17:02.094Z,39.77
2023-02-28T23:22:08.318Z,38.47
2023-02-28T23:27:15.409Z,38.60
2023-02-28T23:32:18.222Z,35.87
2023-02-28T23:37:20.960Z,33.63
2023-02-28T23:42:24.998Z,39.53
2023-02-28T23:47:27.751Z,37.93
2023-02-28T23:52:30.635Z,39.70
2023-02-28T23:57:35.668Z,38.20
